Terminal Aerodrome Forecast
Issued by NWS

Home | Current Version | Previous Version | Text Only | Print | Product List | Glossary Off
Versions: 1 2 3 4 5 6 7 8 9 10 11 12 13 14 15 16 17

366
FTUS42 KMHX 042326
TAFISO
TAF
KISO 042326Z 0500/0524 07007KT P6SM -RA OVC040
     FM050800 06005KT 2SM -RA BKN002 OVC007
     FM051100 01008KT P6SM BKN002 OVC007
     FM051300 35008KT P6SM OVC009
     FM051400 35006KT P6SM BKN020
     FM051500 35005KT P6SM BKN120
      AMD LTD TO VIS AND WIND=

USA.gov is the U.S. government's official web portal to all federal, state and local government web resources and services.